Time;durP1;ratioP1;P1;durP2;ratioP2;P2;SDS_P1;SDS_P2;PMS_P1;PMS_P2;Temp;Humidity;BMP_temperature;BMP_pressure;BME280_temperature;BME280_humidity;BME280_pressure;Samples;Min_cycle;Max_cycle;Signal;HPM_P1;HPM_P2
2023/12/19 00:01:47;;;;;;;37.83;15.30;;;;;;;-148.88;100.00;-17125.47;5039452;28;20018;-79
2023/12/19 00:04:13;;;;;;;35.75;14.57;;;;;;;-148.88;100.00;-17125.47;5044839;28;20056;-79
2023/12/19 00:06:39;;;;;;;45.50;17.67;;;;;;;-148.88;100.00;-17125.47;5041592;28;20021;-79
2023/12/19 00:09:04;;;;;;;34.33;15.70;;;;;;;-148.88;100.00;-17125.47;5041391;28;20029;-79
2023/12/19 00:11:29;;;;;;;32.50;13.10;;;;;;;-148.88;100.00;-17125.47;5041180;28;20034;-78
2023/12/19 00:13:55;;;;;;;32.38;13.65;;;;;;;-148.88;100.00;-17125.47;5060964;22;20497;-89
2023/12/19 00:16:20;;;;;;;29.55;13.40;;;;;;;-148.88;100.00;-17125.47;5097235;28;20059;-88
2023/12/19 00:18:46;;;;;;;33.95;13.48;;;;;;;-148.88;100.00;-17125.47;5097295;28;20020;-88
2023/12/19 00:21:11;;;;;;;25.65;11.32;;;;;;;-148.88;100.00;-17125.47;5097388;28;20028;-88
2023/12/19 00:23:36;;;;;;;30.67;12.90;;;;;;;-148.88;100.00;-17125.47;5096919;28;20054;-89
2023/12/19 00:26:02;;;;;;;26.83;12.18;;;;;;;-148.88;100.00;-17125.47;5096979;28;20019;-87
2023/12/19 00:28:27;;;;;;;30.85;13.30;;;;;;;-148.88;100.00;-17125.47;5097611;28;20069;-87
2023/12/19 00:30:54;;;;;;;27.15;12.15;;;;;;;-148.88;100.00;-17125.47;5096802;28;20390;-89
2023/12/19 00:33:20;;;;;;;33.47;13.70;;;;;;;-148.88;100.00;-17125.47;5095434;28;20035;-88
2023/12/19 00:35:46;;;;;;;36.28;14.73;;;;;;;-148.88;100.00;-17125.47;5095841;28;20118;-88
2023/12/19 00:38:11;;;;;;;38.30;14.85;;;;;;;-148.88;100.00;-17125.47;5097094;28;20555;-89
2023/12/19 00:40:36;;;;;;;33.30;13.80;;;;;;;-148.88;100.00;-17125.47;5096538;28;20486;-88
2023/12/19 00:43:02;;;;;;;36.15;15.52;;;;;;;-148.88;100.00;-17125.47;5096433;28;20027;-88
2023/12/19 00:45:27;;;;;;;42.13;16.70;;;;;;;-148.88;100.00;-17125.47;5096564;28;20390;-88
2023/12/19 00:47:55;;;;;;;43.38;17.75;;;;;;;-148.88;100.00;-17125.47;5095463;28;20051;-87
2023/12/19 00:50:21;;;;;;;45.17;15.25;;;;;;;-148.88;100.00;-17125.47;5095169;28;20021;-87
2023/12/19 00:52:46;;;;;;;36.58;15.10;;;;;;;-148.88;100.00;-17125.47;5096421;28;20089;-88
2023/12/19 00:55:11;;;;;;;38.40;16.90;;;;;;;-148.88;100.00;-17125.47;5096004;28;20391;-89
2023/12/19 00:57:37;;;;;;;39.40;16.45;;;;;;;-148.88;100.00;-17125.47;5096020;28;20044;-89
2023/12/19 01:00:03;;;;;;;35.40;15.10;;;;;;;-148.88;100.00;-17125.47;5096821;28;20026;-89
2023/12/19 01:02:31;;;;;;;32.60;13.43;;;;;;;-148.88;100.00;-17125.47;5095658;28;20462;-90
2023/12/19 01:04:57;;;;;;;34.88;15.57;;;;;;;-148.88;100.00;-17125.47;5096039;28;20016;-88
2023/12/19 01:07:23;;;;;;;34.15;13.88;;;;;;;-148.88;100.00;-17125.47;5096209;28;20525;-89
2023/12/19 01:09:49;;;;;;;43.10;17.10;;;;;;;-148.88;100.00;-17125.47;5096339;28;20024;-89
2023/12/19 01:12:15;;;;;;;34.85;13.52;;;;;;;-148.88;100.00;-17125.47;5097266;28;20490;-88
2023/12/19 01:14:41;;;;;;;36.58;15.80;;;;;;;-148.88;100.00;-17125.47;5094883;28;20048;-87
2023/12/19 01:17:07;;;;;;;41.28;15.32;;;;;;;-148.88;100.00;-17125.47;5095859;28;20024;-88
2023/12/19 01:19:33;;;;;;;37.10;15.52;;;;;;;-148.88;100.00;-17125.47;5093981;28;20121;-89
2023/12/19 01:21:58;;;;;;;38.70;14.48;;;;;;;-148.88;100.00;-17125.47;5095364;28;20035;-88
2023/12/19 01:24:23;;;;;;;34.85;14.15;;;;;;;-148.88;100.00;-17125.47;5096096;28;20024;-88
2023/12/19 01:26:49;;;;;;;35.85;15.20;;;;;;;-148.88;100.00;-17125.47;5095453;28;20424;-88
2023/12/19 01:29:15;;;;;;;38.67;16.10;;;;;;;-148.88;100.00;-17125.47;5095272;28;20031;-88
2023/12/19 01:31:40;;;;;;;40.30;14.73;;;;;;;-148.88;100.00;-17125.47;5095643;28;20030;-89
2023/12/19 01:34:06;;;;;;;38.33;15.20;;;;;;;-148.88;100.00;-17125.47;5095190;28;20098;-88
2023/12/19 01:36:31;;;;;;;36.35;13.52;;;;;;;-148.88;100.00;-17125.47;5095637;28;20027;-88
2023/12/19 01:38:57;;;;;;;39.58;15.77;;;;;;;-148.88;100.00;-17125.47;5095306;28;20066;-88
2023/12/19 01:41:22;;;;;;;37.97;15.00;;;;;;;-148.88;100.00;-17125.47;5095331;28;20020;-89
2023/12/19 01:43:48;;;;;;;32.67;13.10;;;;;;;-148.88;100.00;-17125.47;5095427;28;20016;-89
2023/12/19 01:46:16;;;;;;;43.50;16.52;;;;;;;-148.88;100.00;-17125.47;5095570;28;20459;-89
2023/12/19 01:48:42;;;;;;;28.63;13.75;;;;;;;-148.88;100.00;-17125.47;5095680;28;20490;-89
2023/12/19 01:51:08;;;;;;;35.35;15.43;;;;;;;-148.88;100.00;-17125.47;5095003;28;20076;-90
2023/12/19 01:53:35;;;;;;;29.08;13.68;;;;;;;-148.88;100.00;-17125.47;5094605;28;20020;-88
2023/12/19 01:56:01;;;;;;;37.05;15.40;;;;;;;-148.88;100.00;-17125.47;5094903;28;20469;-88
2023/12/19 01:58:29;;;;;;;39.13;14.85;;;;;;;-148.88;100.00;-17125.47;5094723;28;20024;-88
2023/12/19 02:00:55;;;;;;;33.58;15.38;;;;;;;-148.88;100.00;-17125.47;5093344;28;20016;-89
2023/12/19 02:03:20;;;;;;;38.90;15.88;;;;;;;-148.88;100.00;-17125.47;5093227;28;20020;-90
2023/12/19 02:05:50;;;;;;;37.00;16.00;;;;;;;-148.88;100.00;-17125.47;5094795;28;20094;-88
2023/12/19 02:08:15;;;;;;;30.42;13.45;;;;;;;-148.88;100.00;-17125.47;5094678;28;20050;-90
2023/12/19 02:10:41;;;;;;;32.22;13.90;;;;;;;-148.88;100.00;-17125.47;5094724;28;20020;-89
2023/12/19 02:13:07;;;;;;;35.58;15.07;;;;;;;-148.88;100.00;-17125.47;5094735;28;20062;-87
2023/12/19 02:15:33;;;;;;;36.80;14.52;;;;;;;-148.88;100.00;-17125.47;5094867;28;20067;-88
2023/12/19 02:18:13;;;;;;;44.28;17.42;;;;;;;-148.88;100.00;-17125.47;5094570;28;20028;-88
2023/12/19 02:20:38;;;;;;;40.30;15.63;;;;;;;-148.88;100.00;-17125.47;5093753;28;20115;-88
2023/12/19 02:23:04;;;;;;;38.15;16.42;;;;;;;-148.88;100.00;-17125.47;5095141;28;20024;-88
2023/12/19 02:25:29;;;;;;;40.63;14.73;;;;;;;-148.88;100.00;-17125.47;5094096;28;20024;-89
2023/12/19 02:27:55;;;;;;;38.63;14.45;;;;;;;-148.88;100.00;-17125.47;5094506;28;20107;-89
2023/12/19 02:30:20;;;;;;;36.28;15.90;;;;;;;-148.88;100.00;-17125.47;5094421;28;20038;-87
2023/12/19 02:32:47;;;;;;;39.88;15.10;;;;;;;-148.88;100.00;-17125.47;5094355;28;20488;-88
2023/12/19 02:35:13;;;;;;;37.58;15.50;;;;;;;-148.88;100.00;-17125.47;5094278;28;20024;-88
2023/12/19 02:37:38;;;;;;;36.17;15.90;;;;;;;-148.88;100.00;-17125.47;5094132;28;20024;-88
2023/12/19 02:40:04;;;;;;;42.00;15.00;;;;;;;-148.88;100.00;-17125.47;5094059;28;20031;-88
2023/12/19 02:42:29;;;;;;;37.15;14.40;;;;;;;-148.88;100.00;-17125.47;5094394;28;20049;-88
2023/12/19 02:44:54;;;;;;;40.40;14.35;;;;;;;-148.88;100.00;-17125.47;5094142;28;20028;-88
2023/12/19 02:47:20;;;;;;;37.42;14.63;;;;;;;-148.88;100.00;-17125.47;5093903;28;20020;-87
2023/12/19 02:49:45;;;;;;;38.95;15.20;;;;;;;-148.88;100.00;-17125.47;5093677;28;20024;-88
2023/12/19 02:52:11;;;;;;;35.30;13.93;;;;;;;-148.88;100.00;-17125.47;5094036;28;20084;-89
2023/12/19 02:54:36;;;;;;;33.28;14.38;;;;;;;-148.88;100.00;-17125.47;5094281;28;20024;-89
2023/12/19 02:57:01;;;;;;;33.83;13.85;;;;;;;-148.88;100.00;-17125.47;5094268;28;20036;-87
2023/12/19 02:59:27;;;;;;;32.45;12.88;;;;;;;-148.88;100.00;-17125.47;5093587;28;20074;-87
2023/12/19 03:01:52;;;;;;;35.22;14.98;;;;;;;-148.88;100.00;-17125.47;5093611;28;20024;-88
2023/12/19 03:04:17;;;;;;;33.30;13.18;;;;;;;-148.88;100.00;-17125.47;5093505;28;20475;-88
2023/12/19 03:06:44;;;;;;;32.95;13.80;;;;;;;-148.88;100.00;-17125.47;5093625;28;20413;-87
2023/12/19 03:09:09;;;;;;;35.67;14.95;;;;;;;-148.88;100.00;-17125.47;5092108;28;20062;-87
2023/12/19 03:11:38;;;;;;;37.97;15.05;;;;;;;-148.88;100.00;-17125.47;5093768;28;20055;-88
2023/12/19 03:14:04;;;;;;;32.90;14.68;;;;;;;-148.88;100.00;-17125.47;5093119;28;20032;-88
2023/12/19 03:16:29;;;;;;;31.75;13.07;;;;;;;-148.88;100.00;-17125.47;5093811;28;20036;-89
2023/12/19 03:18:54;;;;;;;31.63;13.65;;;;;;;-148.88;100.00;-17125.47;5093605;28;20051;-90
2023/12/19 03:21:20;;;;;;;32.05;12.43;;;;;;;-148.88;100.00;-17125.47;5093311;28;20043;-89
2023/12/19 03:23:45;;;;;;;35.45;15.18;;;;;;;-148.88;100.00;-17125.47;5093465;28;20099;-88
2023/12/19 03:26:10;;;;;;;32.28;14.13;;;;;;;-148.88;100.00;-17125.47;5092042;28;20028;-89
2023/12/19 03:28:37;;;;;;;33.55;14.63;;;;;;;-148.88;100.00;-17125.47;5093307;28;20028;-87
2023/12/19 03:31:04;;;;;;;37.05;15.85;;;;;;;-148.88;100.00;-17125.47;5093302;28;20077;-90
2023/12/19 03:33:29;;;;;;;34.78;16.00;;;;;;;-148.88;100.00;-17125.47;5093093;28;20031;-88
2023/12/19 03:35:55;;;;;;;41.00;16.08;;;;;;;-148.88;100.00;-17125.47;5093000;28;20024;-88
2023/12/19 03:38:21;;;;;;;44.13;15.00;;;;;;;-148.88;100.00;-17125.47;5092261;28;20031;-88
2023/12/19 03:40:46;;;;;;;34.03;14.65;;;;;;;-148.88;100.00;-17125.47;5093287;28;20050;-88
2023/12/19 03:43:12;;;;;;;43.35;15.95;;;;;;;-148.88;100.00;-17125.47;5093132;28;20103;-87
2023/12/19 03:45:37;;;;;;;37.78;16.58;;;;;;;-148.88;100.00;-17125.47;5092965;28;20036;-89
2023/12/19 03:48:03;;;;;;;35.67;15.00;;;;;;;-148.88;100.00;-17125.47;5093106;28;20016;-87
2023/12/19 03:50:28;;;;;;;34.63;14.68;;;;;;;-148.88;100.00;-17125.47;5093288;28;20049;-88
2023/12/19 03:52:53;;;;;;;39.83;15.65;;;;;;;-148.88;100.00;-17125.47;5092786;28;20046;-88
2023/12/19 03:55:19;;;;;;;43.35;16.85;;;;;;;-148.88;100.00;-17125.47;5093160;28;20386;-88
2023/12/19 03:57:44;;;;;;;40.63;16.02;;;;;;;-148.88;100.00;-17125.47;5093047;28;20074;-87
2023/12/19 04:00:10;;;;;;;40.55;15.48;;;;;;;-148.88;100.00;-17125.47;5092929;28;20060;-87
2023/12/19 04:02:35;;;;;;;42.30;16.48;;;;;;;-148.88;100.00;-17125.47;5092870;28;20101;-88
2023/12/19 04:05:01;;;;;;;40.42;15.25;;;;;;;-148.88;100.00;-17125.47;5093146;28;20497;-88
2023/12/19 04:07:26;;;;;;;44.47;15.95;;;;;;;-148.88;100.00;-17125.47;5093144;28;20024;-87
2023/12/19 04:09:51;;;;;;;37.65;14.95;;;;;;;-148.88;100.00;-17125.47;5093504;28;20039;-88
2023/12/19 04:12:17;;;;;;;39.97;15.00;;;;;;;-148.88;100.00;-17125.47;5092918;28;20024;-87
2023/12/19 04:14:42;;;;;;;36.17;14.50;;;;;;;-148.88;100.00;-17125.47;5092726;28;20394;-88
2023/12/19 04:17:08;;;;;;;33.80;12.93;;;;;;;-148.88;100.00;-17125.47;5092868;28;20119;-88
2023/12/19 04:19:33;;;;;;;34.72;14.98;;;;;;;-148.88;100.00;-17125.47;5092962;28;20028;-87
2023/12/19 04:21:58;;;;;;;36.03;12.60;;;;;;;-148.88;100.00;-17125.47;5093044;28;20035;-87
2023/12/19 04:24:25;;;;;;;33.40;14.32;;;;;;;-148.88;100.00;-17125.47;5092664;28;20027;-86
2023/12/19 04:26:51;;;;;;;28.60;13.13;;;;;;;-148.88;100.00;-17125.47;5092806;28;20035;-88
2023/12/19 04:29:16;;;;;;;31.10;12.38;;;;;;;-148.88;100.00;-17125.47;5092879;28;20024;-89
2023/12/19 04:31:42;;;;;;;31.77;12.18;;;;;;;-148.88;100.00;-17125.47;5092541;28;20032;-88
2023/12/19 04:34:07;;;;;;;27.65;11.00;;;;;;;-148.88;100.00;-17125.47;5092905;28;20035;-87
2023/12/19 04:36:33;;;;;;;25.38;11.23;;;;;;;-148.88;100.00;-17125.47;5092614;28;20040;-88
2023/12/19 04:38:59;;;;;;;26.48;11.13;;;;;;;-148.88;100.00;-17125.47;5092497;28;20028;-89
2023/12/19 04:41:24;;;;;;;28.55;11.02;;;;;;;-148.88;100.00;-17125.47;5093236;28;20031;-88
2023/12/19 04:43:50;;;;;;;24.95;10.88;;;;;;;-148.88;100.00;-17125.47;5092633;28;20475;-89
2023/12/19 04:46:15;;;;;;;24.98;11.73;;;;;;;-148.88;100.00;-17125.47;5092671;28;20429;-88
2023/12/19 04:48:42;;;;;;;27.75;11.90;;;;;;;-148.88;100.00;-17125.47;5091927;28;20024;-88
2023/12/19 04:51:16;;;;;;;26.67;10.85;;;;;;;-148.88;100.00;-17125.47;5094944;28;20505;-88
2023/12/19 04:53:41;;;;;;;28.83;11.55;;;;;;;-148.88;100.00;-17125.47;5096248;28;20031;-88
2023/12/19 04:56:06;;;;;;;32.20;13.82;;;;;;;-148.88;100.00;-17125.47;5096006;28;20032;-88
2023/12/19 04:58:32;;;;;;;33.15;13.40;;;;;;;-148.88;100.00;-17125.47;5095853;28;20444;-87
2023/12/19 05:00:57;;;;;;;33.25;13.05;;;;;;;-148.88;100.00;-17125.47;5096028;28;20030;-88
2023/12/19 05:03:23;;;;;;;31.67;13.73;;;;;;;-148.88;100.00;-17125.47;5095914;28;20031;-88
2023/12/19 05:05:48;;;;;;;32.15;12.68;;;;;;;-148.88;100.00;-17125.47;5095913;28;20027;-88
2023/12/19 05:08:15;;;;;;;31.42;12.43;;;;;;;-148.88;100.00;-17125.47;5095655;28;20023;-89
2023/12/19 05:10:40;;;;;;;32.72;12.55;;;;;;;-148.88;100.00;-17125.47;5094848;28;20024;-89
2023/12/19 05:13:06;;;;;;;34.28;13.30;;;;;;;-148.88;100.00;-17125.47;5096099;28;20434;-87
2023/12/19 05:15:32;;;;;;;28.83;13.15;;;;;;;-148.88;100.00;-17125.47;5096369;28;20028;-90
2023/12/19 05:17:57;;;;;;;29.15;12.15;;;;;;;-148.88;100.00;-17125.47;5095998;28;20030;-87
2023/12/19 05:20:23;;;;;;;35.90;13.40;;;;;;;-148.88;100.00;-17125.47;5094198;28;20437;-89
2023/12/19 05:22:48;;;;;;;33.22;13.30;;;;;;;-148.88;100.00;-17125.47;5095268;28;20028;-88
2023/12/19 05:25:14;;;;;;;28.38;12.55;;;;;;;-148.88;100.00;-17125.47;5095451;28;20096;-88
2023/12/19 05:27:43;;;;;;;34.17;13.55;;;;;;;-148.88;100.00;-17125.47;5095231;28;20387;-88
2023/12/19 05:30:11;;;;;;;29.83;12.07;;;;;;;-148.88;100.00;-17125.47;5095275;28;20024;-87
2023/12/19 05:32:36;;;;;;;29.50;11.45;;;;;;;-148.88;100.00;-17125.47;5095206;28;20020;-89
2023/12/19 05:35:01;;;;;;;26.17;12.02;;;;;;;-148.88;100.00;-17125.47;5095635;28;20607;-88
2023/12/19 05:37:27;;;;;;;29.67;11.52;;;;;;;-148.88;100.00;-17125.47;5095339;28;20050;-87
2023/12/19 05:39:52;;;;;;;27.40;11.57;;;;;;;-148.88;100.00;-17125.47;5095542;28;20024;-88
2023/12/19 05:42:18;;;;;;;23.02;10.93;;;;;;;-148.88;100.00;-17125.47;5094830;28;20023;-87
2023/12/19 05:44:44;;;;;;;21.50;10.38;;;;;;;-148.88;100.00;-17125.47;5094157;28;20069;-87
2023/12/19 05:47:09;;;;;;;23.60;9.98;;;;;;;-148.88;100.00;-17125.47;5095449;28;20429;-88
2023/12/19 05:49:34;;;;;;;22.77;9.25;;;;;;;-148.88;100.00;-17125.47;5095679;28;20479;-88
2023/12/19 05:52:01;;;;;;;23.70;9.90;;;;;;;-148.88;100.00;-17125.47;5095846;28;20049;-89
2023/12/19 05:54:26;;;;;;;23.15;8.93;;;;;;;-148.88;100.00;-17125.47;5093951;28;20023;-88
2023/12/19 05:56:51;;;;;;;22.30;10.25;;;;;;;-148.88;100.00;-17125.47;5094973;28;20027;-88
2023/12/19 05:59:17;;;;;;;20.92;8.57;;;;;;;-148.88;100.00;-17125.47;5095159;28;20020;-89
2023/12/19 06:01:42;;;;;;;18.27;8.60;;;;;;;-148.88;100.00;-17125.47;5093980;28;20081;-88
2023/12/19 06:04:08;;;;;;;18.45;8.90;;;;;;;-148.88;100.00;-17125.47;5094899;28;20012;-87
2023/12/19 06:06:37;;;;;;;18.05;8.45;;;;;;;-148.88;100.00;-17125.47;5095141;28;20024;-87
2023/12/19 06:09:05;;;;;;;18.45;8.35;;;;;;;-148.88;100.00;-17125.47;5094728;28;20032;-88
2023/12/19 06:11:30;;;;;;;19.88;8.40;;;;;;;-148.88;100.00;-17125.47;5094679;28;20024;-90
2023/12/19 06:13:55;;;;;;;16.75;8.38;;;;;;;-148.88;100.00;-17125.47;5094953;28;20390;-88
2023/12/19 06:16:21;;;;;;;17.15;8.00;;;;;;;-148.88;100.00;-17125.47;5093382;28;20088;-89
2023/12/19 06:18:46;;;;;;;16.17;7.22;;;;;;;-148.88;100.00;-17125.47;5094665;28;20024;-89
2023/12/19 06:21:12;;;;;;;15.73;7.57;;;;;;;-148.88;100.00;-17125.47;5094810;28;20525;-88
2023/12/19 06:23:37;;;;;;;17.10;7.60;;;;;;;-148.88;100.00;-17125.47;5094974;28;20436;-91
2023/12/19 06:26:03;;;;;;;15.02;6.43;;;;;;;-148.88;100.00;-17125.47;5094376;28;20023;-90
2023/12/19 06:28:28;;;;;;;15.18;7.50;;;;;;;-148.88;100.00;-17125.47;5093927;28;20049;-89
2023/12/19 06:30:53;;;;;;;15.35;6.53;;;;;;;-148.88;100.00;-17125.47;5094836;28;20035;-88
2023/12/19 06:33:19;;;;;;;13.75;6.80;;;;;;;-148.88;100.00;-17125.47;5094845;28;20031;-88
2023/12/19 06:35:49;;;;;;;14.25;6.75;;;;;;;-148.88;100.00;-17125.47;5094633;28;20394;-87
2023/12/19 06:38:14;;;;;;;14.68;6.65;;;;;;;-148.88;100.00;-17125.47;5094142;28;20024;-87
2023/12/19 06:40:39;;;;;;;12.00;5.70;;;;;;;-148.88;100.00;-17125.47;5094077;28;20024;-87
2023/12/19 06:43:05;;;;;;;14.85;6.38;;;;;;;-148.88;100.00;-17125.47;5094225;28;20024;-86
2023/12/19 06:45:32;;;;;;;15.38;6.22;;;;;;;-148.88;100.00;-17125.47;5093819;28;20095;-88
2023/12/19 06:47:59;;;;;;;13.70;6.82;;;;;;;-148.88;100.00;-17125.47;5094090;28;20360;-87
2023/12/19 06:50:27;;;;;;;13.88;6.32;;;;;;;-148.88;100.00;-17125.47;5093821;28;20028;-87
2023/12/19 06:52:54;;;;;;;16.00;6.38;;;;;;;-148.88;100.00;-17125.47;5093928;28;20398;-85
2023/12/19 06:55:20;;;;;;;13.77;6.40;;;;;;;-148.88;100.00;-17125.47;5093721;28;20016;-86
2023/12/19 06:57:45;;;;;;;14.02;6.47;;;;;;;-148.88;100.00;-17125.47;5071741;28;20036;-86
2023/12/19 07:00:11;;;;;;;13.82;6.20;;;;;;;-148.88;100.00;-17125.47;5070332;28;20119;-86
2023/12/19 07:02:37;;;;;;;14.23;6.70;;;;;;;-148.88;100.00;-17125.47;5070971;28;20475;-87
2023/12/19 07:05:03;;;;;;;15.85;7.88;;;;;;;-148.88;100.00;-17125.47;5075964;28;20029;-87
2023/12/19 07:07:28;;;;;;;11.77;5.97;;;;;;;-148.88;100.00;-17125.47;5071388;28;20399;-86
2023/12/19 07:09:53;;;;;;;12.70;6.28;;;;;;;-148.88;100.00;-17125.47;5071731;28;20036;-85
2023/12/19 07:12:19;;;;;;;15.73;6.18;;;;;;;-148.88;100.00;-17125.47;5074398;28;20031;-87
2023/12/19 07:14:44;;;;;;;15.10;6.80;;;;;;;-148.88;100.00;-17125.47;5089891;28;20032;-86
2023/12/19 07:17:10;;;;;;;13.18;6.28;;;;;;;-148.88;100.00;-17125.47;5070975;28;20052;-87
2023/12/19 07:19:36;;;;;;;13.60;6.30;;;;;;;-148.88;100.00;-17125.47;5071112;28;20024;-86
2023/12/19 07:22:01;;;;;;;12.93;5.75;;;;;;;-148.88;100.00;-17125.47;5072341;28;20471;-86
2023/12/19 07:24:27;;;;;;;13.40;6.20;;;;;;;-148.88;100.00;-17125.47;5073355;28;20501;-87
2023/12/19 07:26:57;;;;;;;10.63;5.40;;;;;;;-148.88;100.00;-17125.47;5073543;28;20031;-86
2023/12/19 07:29:22;;;;;;;9.88;4.47;;;;;;;-148.88;100.00;-17125.47;5073013;28;20031;-87
2023/12/19 07:31:47;;;;;;;8.68;4.35;;;;;;;-148.88;100.00;-17125.47;5073104;28;20024;-87
2023/12/19 07:34:13;;;;;;;9.88;3.95;;;;;;;-148.88;100.00;-17125.47;5071894;28;20029;-87
2023/12/19 07:36:41;;;;;;;10.63;4.43;;;;;;;-148.88;100.00;-17125.47;5073547;28;20031;-87
2023/12/19 07:39:07;;;;;;;9.65;4.32;;;;;;;-148.88;100.00;-17125.47;5071969;28;20050;-84
2023/12/19 07:41:33;;;;;;;10.85;4.30;;;;;;;-148.88;100.00;-17125.47;5071630;28;20081;-86
2023/12/19 07:43:58;;;;;;;9.00;4.05;;;;;;;-148.88;100.00;-17125.47;5072985;28;20032;-86
2023/12/19 07:46:24;;;;;;;10.02;3.97;;;;;;;-148.88;100.00;-17125.47;5076984;28;20028;-86
2023/12/19 07:48:50;;;;;;;7.03;2.92;;;;;;;-148.88;100.00;-17125.47;5074218;28;20037;-86
2023/12/19 07:51:16;;;;;;;6.88;2.97;;;;;;;-148.88;100.00;-17125.47;5070727;28;20135;-86
2023/12/19 07:53:42;;;;;;;7.40;3.35;;;;;;;-148.88;100.00;-17125.47;5083763;28;20016;-87
2023/12/19 07:56:07;;;;;;;7.75;3.70;;;;;;;-148.88;100.00;-17125.47;5092149;28;20035;-86
2023/12/19 07:58:33;;;;;;;5.35;2.30;;;;;;;-148.88;100.00;-17125.47;5093294;28;20030;-86
2023/12/19 08:00:58;;;;;;;6.05;2.97;;;;;;;-148.88;100.00;-17125.47;5092643;28;20035;-86
2023/12/19 08:03:25;;;;;;;8.00;2.72;;;;;;;-148.88;100.00;-17125.47;5091707;28;20033;-86
2023/12/19 08:05:50;;;;;;;5.63;3.15;;;;;;;-148.88;100.00;-17125.47;5092936;28;20069;-86
2023/12/19 08:08:19;;;;;;;6.72;3.05;;;;;;;-148.88;100.00;-17125.47;5092955;28;20070;-86
2023/12/19 08:10:45;;;;;;;6.15;2.75;;;;;;;-148.88;100.00;-17125.47;5093507;28;20376;-85
2023/12/19 08:13:11;;;;;;;5.20;2.55;;;;;;;-148.88;100.00;-17125.47;5093551;28;20020;-86
2023/12/19 08:15:36;;;;;;;5.68;2.38;;;;;;;-148.88;100.00;-17125.47;5092753;28;20076;-87
2023/12/19 08:18:02;;;;;;;6.10;2.40;;;;;;;-148.88;100.00;-17125.47;5092866;28;20028;-87
2023/12/19 08:20:27;;;;;;;4.95;2.30;;;;;;;-148.88;100.00;-17125.47;5092589;28;20394;-86
2023/12/19 08:22:53;;;;;;;4.18;2.17;;;;;;;-148.88;100.00;-17125.47;5092974;28;20040;-86
2023/12/19 08:25:18;;;;;;;3.97;1.98;;;;;;;-148.88;100.00;-17125.47;5095624;28;20034;-86
2023/12/19 08:27:44;;;;;;;3.55;1.80;;;;;;;-148.88;100.00;-17125.47;5096739;28;20034;-86
2023/12/19 08:30:12;;;;;;;4.03;2.05;;;;;;;-148.88;100.00;-17125.47;5096403;28;20032;-87
2023/12/19 08:32:38;;;;;;;4.22;2.17;;;;;;;-148.88;100.00;-17125.47;5096287;28;20020;-87
2023/12/19 08:35:04;;;;;;;3.67;1.98;;;;;;;-148.88;100.00;-17125.47;5096420;28;20024;-89
2023/12/19 08:37:30;;;;;;;4.80;2.25;;;;;;;-148.88;100.00;-17125.47;5096436;28;20032;-88
2023/12/19 08:39:57;;;;;;;3.97;1.95;;;;;;;-148.88;100.00;-17125.47;5096130;28;20024;-88
2023/12/19 08:42:23;;;;;;;5.40;2.45;;;;;;;-148.88;100.00;-17125.47;5097205;28;20107;-87
2023/12/19 08:44:52;;;;;;;4.32;2.20;;;;;;;-148.88;100.00;-17125.47;5097188;28;20025;-87
2023/12/19 08:47:17;;;;;;;4.85;2.38;;;;;;;-148.88;100.00;-17125.47;5097164;28;20028;-87
2023/12/19 08:49:46;;;;;;;5.38;2.60;;;;;;;-148.88;100.00;-17125.47;5096534;28;20040;-86
2023/12/19 08:52:12;;;;;;;4.55;2.10;;;;;;;-148.88;100.00;-17125.47;5095057;28;20420;-88
2023/12/19 08:54:37;;;;;;;4.97;2.10;;;;;;;-148.88;100.00;-17125.47;5096186;28;20026;-88
2023/12/19 08:57:04;;;;;;;4.80;2.15;;;;;;;-148.88;100.00;-17125.47;5096077;28;20039;-88
2023/12/19 08:59:29;;;;;;;5.57;2.55;;;;;;;-148.88;100.00;-17125.47;5095938;28;20475;-87
2023/12/19 09:01:55;;;;;;;6.38;2.63;;;;;;;-148.88;100.00;-17125.47;5095986;28;20031;-88
2023/12/19 09:04:21;;;;;;;6.68;3.15;;;;;;;-148.88;100.00;-17125.47;5095902;28;20023;-87
2023/12/19 09:06:48;;;;;;;6.72;3.42;;;;;;;-148.88;100.00;-17125.47;5095738;28;20028;-88
2023/12/19 09:09:13;;;;;;;6.35;3.00;;;;;;;-148.88;100.00;-17125.47;5095855;28;20027;-87
2023/12/19 09:11:39;;;;;;;7.22;2.83;;;;;;;-148.88;100.00;-17125.47;5095745;28;20437;-87
2023/12/19 09:14:05;;;;;;;6.68;3.30;;;;;;;-148.88;100.00;-17125.47;5095429;28;20081;-87
2023/12/19 09:16:30;;;;;;;6.57;3.42;;;;;;;-148.88;100.00;-17125.47;5095839;28;20403;-89
2023/12/19 09:18:55;;;;;;;7.13;3.55;;;;;;;-148.88;100.00;-17125.47;5095644;28;20437;-87
2023/12/19 09:21:21;;;;;;;10.27;4.88;;;;;;;-148.88;100.00;-17125.47;5096353;28;20024;-88
2023/12/19 09:23:47;;;;;;;14.63;6.03;;;;;;;-148.88;100.00;-17125.47;5096428;28;20069;-87
2023/12/19 09:26:13;;;;;;;12.52;5.82;;;;;;;-148.88;100.00;-17125.47;5095980;28;20020;-89
2023/12/19 09:28:39;;;;;;;16.75;7.45;;;;;;;-148.88;100.00;-17125.47;5094291;28;20425;-87
2023/12/19 09:31:07;;;;;;;16.70;7.45;;;;;;;-148.88;100.00;-17125.47;5095494;28;20020;-86
2023/12/19 09:33:34;;;;;;;17.63;8.02;;;;;;;-148.88;100.00;-17125.47;5096067;28;20024;-86
2023/12/19 09:36:00;;;;;;;18.42;8.10;;;;;;;-148.88;100.00;-17125.47;5094131;28;20490;-87
2023/12/19 09:38:26;;;;;;;18.77;8.60;;;;;;;-148.88;100.00;-17125.47;5095163;28;20027;-87
2023/12/19 09:40:51;;;;;;;18.27;8.65;;;;;;;-148.88;100.00;-17125.47;5095143;28;20069;-88
2023/12/19 09:43:17;;;;;;;17.80;8.63;;;;;;;-148.88;100.00;-17125.47;5095128;28;20023;-87
2023/12/19 09:45:43;;;;;;;17.02;8.38;;;;;;;-148.88;100.00;-17125.47;5095367;28;20413;-87
2023/12/19 09:48:12;;;;;;;20.00;7.70;;;;;;;-148.88;100.00;-17125.47;5095123;28;20047;-89
2023/12/19 09:50:55;;;;;;;18.15;8.20;;;;;;;-148.88;100.00;-17125.47;5095581;28;20020;-87
2023/12/19 09:53:21;;;;;;;18.63;8.75;;;;;;;-148.88;100.00;-17125.47;5093949;28;20051;-87
2023/12/19 09:55:46;;;;;;;16.65;9.18;;;;;;;-148.88;100.00;-17125.47;5095363;28;20052;-86
2023/12/19 09:58:12;;;;;;;18.15;8.25;;;;;;;-148.88;100.00;-17125.47;5094377;28;20114;-87
2023/12/19 10:00:41;;;;;;;22.20;10.27;;;;;;;-148.88;100.00;-17125.47;5095322;28;20088;-88
2023/12/19 10:03:06;;;;;;;17.90;7.53;;;;;;;-148.88;100.00;-17125.47;5093701;28;20091;-87
2023/12/19 10:05:32;;;;;;;19.75;9.10;;;;;;;-148.88;100.00;-17125.47;5095309;28;20076;-87
2023/12/19 10:07:57;;;;;;;21.45;9.32;;;;;;;-148.88;100.00;-17125.47;5095104;28;20137;-87
2023/12/19 10:10:28;;;;;;;22.75;9.75;;;;;;;-148.88;100.00;-17125.47;5094514;28;20024;-86
2023/12/19 10:12:54;;;;;;;20.23;9.10;;;;;;;-148.88;100.00;-17125.47;5094755;28;20039;-88
2023/12/19 10:15:19;;;;;;;20.15;9.23;;;;;;;-148.88;100.00;-17125.47;5094662;28;20405;-86
2023/12/19 10:18:06;;;;;;;19.73;9.10;;;;;;;-148.88;100.00;-17125.47;5094692;28;20063;-86
2023/12/19 10:20:32;;;;;;;19.15;8.68;;;;;;;-148.88;100.00;-17125.47;5093329;28;20024;-86
2023/12/19 10:23:07;;;;;;;21.83;10.10;;;;;;;-148.88;100.00;-17125.47;5094534;28;20026;-87
2023/12/19 10:25:32;;;;;;;21.33;10.02;;;;;;;-148.88;100.00;-17125.47;5095082;28;20039;-86
2023/12/19 10:28:07;;;;;;;20.52;9.20;;;;;;;-148.88;100.00;-17125.47;5093334;28;20046;-87
2023/12/19 10:30:34;;;;;;;20.15;9.85;;;;;;;-148.88;100.00;-17125.47;5110311;28;20020;-87
2023/12/19 10:32:59;;;;;;;19.70;9.82;;;;;;;-148.88;100.00;-17125.47;5096664;28;20390;-87
2023/12/19 10:35:25;;;;;;;22.52;10.15;;;;;;;-148.88;100.00;-17125.47;5094207;28;20012;-85
2023/12/19 10:37:50;;;;;;;21.00;9.73;;;;;;;-148.88;100.00;-17125.47;5094568;28;20486;-87
2023/12/19 10:40:19;;;;;;;27.40;10.90;;;;;;;-148.88;100.00;-17125.47;5094721;28;20474;-87
2023/12/19 10:43:00;;;;;;;19.42;9.35;;;;;;;-148.88;100.00;-17125.47;5093043;28;20111;-89
2023/12/19 10:45:26;;;;;;;21.02;10.15;;;;;;;-148.88;100.00;-17125.47;5094872;28;20016;-86
2023/12/19 10:47:51;;;;;;;21.92;10.65;;;;;;;-148.88;100.00;-17125.47;5092646;28;20081;-86